createdAt,value
2023-06-04T00:00:27.306Z,14.30
2023-06-04T00:01:27.269Z,14.29
2023-06-04T00:02:27.318Z,14.24
2023-06-04T00:03:27.539Z,14.21
2023-06-04T00:04:27.232Z,14.19
2023-06-04T00:05:27.301Z,14.16
2023-06-04T00:06:27.161Z,14.13
2023-06-04T00:07:27.417Z,14.16
2023-06-04T00:08:27.136Z,14.16
2023-06-04T00:09:27.190Z,14.13
2023-06-04T00:10:27.133Z,14.12
2023-06-04T00:11:27.117Z,14.09
2023-06-04T00:12:27.099Z,14.05
2023-06-04T00:13:27.078Z,13.99
2023-06-04T00:14:27.113Z,13.94
2023-06-04T00:15:27.061Z,13.91
2023-06-04T00:16:27.143Z,13.90
2023-06-04T00:17:27.082Z,13.87
2023-06-04T00:18:27.032Z,13.84
2023-06-04T00:19:27.012Z,13.83
2023-06-04T00:20:26.988Z,13.80
2023-06-04T00:21:26.980Z,13.79
2023-06-04T00:22:27.205Z,13.76
2023-06-04T00:23:27.106Z,13.79
2023-06-04T00:24:26.927Z,13.80
2023-06-04T00:25:26.934Z,13.79
2023-06-04T00:26:26.915Z,13.79
2023-06-04T00:27:27.015Z,13.75
2023-06-04T00:28:26.883Z,13.72
2023-06-04T00:29:26.873Z,13.72
2023-06-04T00:30:26.891Z,13.69
2023-06-04T00:31:26.958Z,13.66
2023-06-04T00:32:26.883Z,13.63
2023-06-04T00:33:26.821Z,13.61
2023-06-04T00:34:26.804Z,13.61
2023-06-04T00:35:26.816Z,13.59
2023-06-04T00:36:26.790Z,13.57
2023-06-04T00:37:26.780Z,13.55
2023-06-04T00:38:26.769Z,13.54
2023-06-04T00:39:26.760Z,13.51
2023-06-04T00:40:26.738Z,13.47
2023-06-04T00:41:26.721Z,13.46
2023-06-04T00:42:26.704Z,13.43
2023-06-04T00:43:26.738Z,13.44
2023-06-04T00:44:26.664Z,13.39
2023-06-04T00:45:26.685Z,13.41
2023-06-04T00:46:26.979Z,13.39
2023-06-04T00:47:26.683Z,13.38
2023-06-04T00:48:26.626Z,13.35
2023-06-04T00:49:26.620Z,13.31
2023-06-04T00:50:26.602Z,13.28
2023-06-04T00:51:26.584Z,13.25
2023-06-04T00:52:26.563Z,13.25
2023-06-04T00:53:26.564Z,13.24
2023-06-04T00:54:26.529Z,13.24
2023-06-04T00:55:26.551Z,13.22
2023-06-04T00:56:26.525Z,13.24
2023-06-04T00:57:26.519Z,13.27
2023-06-04T00:58:26.479Z,13.27
2023-06-04T00:59:26.485Z,13.24
2023-06-04T01:00:26.457Z,13.22
2023-06-04T01:01:26.537Z,13.21
2023-06-04T01:02:26.559Z,13.17
2023-06-04T01:03:26.486Z,13.19
2023-06-04T01:04:26.408Z,13.22
2023-06-04T01:05:26.392Z,13.22
2023-06-04T01:06:26.375Z,13.19
2023-06-04T01:07:26.571Z,13.17
2023-06-04T01:08:26.366Z,13.16
2023-06-04T01:09:26.356Z,13.12
2023-06-04T01:10:26.322Z,13.09
2023-06-04T01:11:26.310Z,13.07
2023-06-04T01:12:26.316Z,13.06
2023-06-04T01:13:26.313Z,13.03
2023-06-04T01:14:26.260Z,13.03
2023-06-04T01:15:26.261Z,13.06
2023-06-04T01:16:26.288Z,13.09
2023-06-04T01:17:26.299Z,13.09
2023-06-04T01:18:26.224Z,13.09
2023-06-04T01:19:26.216Z,13.10
2023-06-04T01:20:26.194Z,13.12
2023-06-04T01:21:26.196Z,13.12
2023-06-04T01:22:26.176Z,13.10
2023-06-04T01:23:26.193Z,13.09
2023-06-04T01:24:26.138Z,13.10
2023-06-04T01:25:27.085Z,13.10
2023-06-04T01:26:26.126Z,13.09
2023-06-04T01:27:26.130Z,13.07
2023-06-04T01:28:26.094Z,13.04
2023-06-04T01:29:26.088Z,13.03
2023-06-04T01:30:26.073Z,12.98
2023-06-04T01:31:26.121Z,12.98
2023-06-04T01:32:26.104Z,12.95
2023-06-04T01:33:26.038Z,12.94
2023-06-04T01:34:25.997Z,12.92
2023-06-04T01:35:28.255Z,12.91
2023-06-04T01:36:25.977Z,12.91
2023-06-04T01:37:25.985Z,12.88
2023-06-04T01:38:25.972Z,12.89
2023-06-04T01:39:25.954Z,12.85
2023-06-04T01:40:25.952Z,12.80
2023-06-04T01:41:25.964Z,12.76
2023-06-04T01:42:25.930Z,12.73
2023-06-04T01:43:25.906Z,12.73
2023-06-04T01:44:25.882Z,12.70
2023-06-04T01:45:25.883Z,12.66
2023-06-04T01:46:25.908Z,12.63
2023-06-04T01:47:25.907Z,12.63
2023-06-04T01:48:25.876Z,12.61
2023-06-04T01:49:25.825Z,12.59
2023-06-04T01:50:25.810Z,12.61
2023-06-04T01:51:25.802Z,12.62
2023-06-04T01:52:25.802Z,12.62
2023-06-04T01:53:25.776Z,12.59
2023-06-04T01:54:25.779Z,12.61
2023-06-04T01:55:25.753Z,12.63
2023-06-04T01:56:25.725Z,12.61
2023-06-04T01:57:25.729Z,12.55
2023-06-04T01:58:25.711Z,12.55
2023-06-04T01:59:25.709Z,12.54
2023-06-04T02:00:25.686Z,12.52
2023-06-04T02:01:25.689Z,12.51
2023-06-04T02:02:25.661Z,12.49
2023-06-04T02:03:25.816Z,12.49
2023-06-04T02:04:25.628Z,12.52
2023-06-04T02:05:25.632Z,12.51
2023-06-04T02:06:25.595Z,12.48
2023-06-04T02:07:25.601Z,12.46
2023-06-04T02:08:25.581Z,12.48
2023-06-04T02:09:25.565Z,12.46
2023-06-04T02:10:25.556Z,12.46
2023-06-04T02:11:25.534Z,12.44
2023-06-04T02:12:25.709Z,12.46
2023-06-04T02:13:25.723Z,12.40
2023-06-04T02:14:25.491Z,12.40
2023-06-04T02:15:25.484Z,12.41
2023-06-04T02:16:25.486Z,12.41
2023-06-04T02:17:25.484Z,12.43
2023-06-04T02:18:25.465Z,12.40
2023-06-04T02:19:25.439Z,12.34
2023-06-04T02:20:25.414Z,12.31
2023-06-04T02:21:25.412Z,12.29
2023-06-04T02:22:25.385Z,12.26
2023-06-04T02:23:25.404Z,12.29
2023-06-04T02:24:25.356Z,12.26
2023-06-04T02:25:25.827Z,12.26
2023-06-04T02:26:25.340Z,12.25
2023-06-04T02:27:25.356Z,12.25
2023-06-04T02:28:25.312Z,12.25
2023-06-04T02:29:25.303Z,12.23
2023-06-04T02:30:25.281Z,12.23
2023-06-04T02:31:25.352Z,12.22
2023-06-04T02:32:26.008Z,12.23
2023-06-04T02:33:25.270Z,12.23
2023-06-04T02:34:25.232Z,12.21
2023-06-04T02:35:25.300Z,12.21
2023-06-04T02:36:25.216Z,12.18
2023-06-04T02:37:25.197Z,12.16
2023-06-04T02:38:25.191Z,12.11
2023-06-04T02:39:25.180Z,12.07
2023-06-04T02:40:25.156Z,12.07
2023-06-04T02:41:25.142Z,12.04
2023-06-04T02:42:25.122Z,12.01
2023-06-04T02:43:25.145Z,11.98
2023-06-04T02:44:26.943Z,11.98
2023-06-04T02:45:25.109Z,11.96
2023-06-04T02:46:25.124Z,11.93
2023-06-04T02:47:25.065Z,11.93
2023-06-04T02:48:25.050Z,11.96
2023-06-04T02:49:25.065Z,11.97
2023-06-04T02:50:25.025Z,11.98
2023-06-04T02:51:25.058Z,12.00
2023-06-04T02:52:24.987Z,12.00
2023-06-04T02:53:24.994Z,12.00
2023-06-04T02:54:24.992Z,11.97
2023-06-04T02:55:24.966Z,11.96
2023-06-04T02:56:24.937Z,11.93
2023-06-04T02:57:24.943Z,11.94
2023-06-04T02:58:24.916Z,11.96
2023-06-04T02:59:24.927Z,11.93
2023-06-04T03:00:24.896Z,11.93
2023-06-04T03:01:24.902Z,11.90
2023-06-04T03:02:24.874Z,11.90
2023-06-04T03:03:24.972Z,11.87
2023-06-04T03:04:24.836Z,11.85
2023-06-04T03:05:24.836Z,11.85
2023-06-04T03:06:24.818Z,11.85
2023-06-04T03:07:24.832Z,11.85
2023-06-04T03:08:24.867Z,11.88
2023-06-04T03:09:24.797Z,11.88
2023-06-04T03:10:24.761Z,11.90
2023-06-04T03:11:24.753Z,11.93
2023-06-04T03:12:24.734Z,11.93
2023-06-04T03:13:24.768Z,11.93
2023-06-04T03:14:24.754Z,11.88
2023-06-04T03:15:24.708Z,11.85
2023-06-04T03:16:24.822Z,11.84
2023-06-04T03:17:24.709Z,11.79
2023-06-04T03:18:24.689Z,11.77
2023-06-04T03:19:24.674Z,11.79
2023-06-04T03:20:24.637Z,11.78
2023-06-04T03:21:24.657Z,11.78
2023-06-04T03:22:24.600Z,11.78
2023-06-04T03:23:24.625Z,11.78
2023-06-04T03:24:24.583Z,11.78
2023-06-04T03:25:24.577Z,11.78
2023-06-04T03:26:24.560Z,11.77
2023-06-04T03:27:24.614Z,11.75
2023-06-04T03:28:24.566Z,11.74
2023-06-04T03:29:24.520Z,11.72
2023-06-04T03:30:24.519Z,11.72
2023-06-04T03:31:24.523Z,11.70
2023-06-04T03:32:24.516Z,11.74
2023-06-04T03:33:24.472Z,11.75
2023-06-04T03:34:24.454Z,11.74
2023-06-04T03:35:24.438Z,11.75
2023-06-04T03:36:24.429Z,11.77
2023-06-04T03:37:24.449Z,11.79
2023-06-04T03:38:24.407Z,11.84
2023-06-04T03:39:24.431Z,11.85
2023-06-04T03:40:24.427Z,11.88
2023-06-04T03:41:24.360Z,11.94
2023-06-04T03:42:24.344Z,11.96
2023-06-04T03:43:24.329Z,11.97
2023-06-04T03:44:24.340Z,12.03
2023-06-04T03:45:24.301Z,12.05
2023-06-04T03:46:24.306Z,12.08
2023-06-04T03:47:24.317Z,12.13
2023-06-04T03:48:24.256Z,12.18
2023-06-04T03:49:24.250Z,12.22
2023-06-04T03:50:25.018Z,12.22
2023-06-04T03:51:24.227Z,12.25
2023-06-04T03:52:25.072Z,12.26
2023-06-04T03:53:25.086Z,12.29
2023-06-04T03:54:24.231Z,12.33
2023-06-04T03:55:24.180Z,12.37
2023-06-04T03:56:24.168Z,12.37
2023-06-04T03:57:24.141Z,12.37
2023-06-04T03:58:25.195Z,12.40
2023-06-04T03:59:24.140Z,12.40
2023-06-04T04:00:25.005Z,12.41
2023-06-04T04:01:24.096Z,12.43
2023-06-04T04:02:24.203Z,12.44
2023-06-04T04:03:24.145Z,12.44
2023-06-04T04:04:25.202Z,12.44
2023-06-04T04:05:24.044Z,12.46
2023-06-04T04:06:24.054Z,12.49
2023-06-04T04:07:24.699Z,12.49
2023-06-04T04:08:25.245Z,12.52
2023-06-04T04:09:23.992Z,12.54
2023-06-04T04:10:25.066Z,12.56
2023-06-04T04:11:24.147Z,12.55
2023-06-04T04:12:24.023Z,12.55
2023-06-04T04:13:24.785Z,12.55
2023-06-04T04:14:25.189Z,12.58
2023-06-04T04:15:24.971Z,12.58
2023-06-04T04:16:23.955Z,12.56
2023-06-04T04:17:25.608Z,12.59
2023-06-04T04:18:23.898Z,12.61
2023-06-04T04:19:23.943Z,12.61
2023-06-04T04:20:23.876Z,12.63
2023-06-04T04:21:23.900Z,12.66
2023-06-04T04:22:23.943Z,12.62
2023-06-04T04:23:24.036Z,12.63
2023-06-04T04:24:24.021Z,12.63
2023-06-04T04:25:23.806Z,12.69
2023-06-04T04:26:23.808Z,12.70
2023-06-04T04:27:23.794Z,12.77
2023-06-04T04:28:23.927Z,12.80
2023-06-04T04:29:23.818Z,12.85
2023-06-04T04:30:23.854Z,12.87
2023-06-04T04:31:23.768Z,12.89
2023-06-04T04:32:23.791Z,12.88
2023-06-04T04:33:23.696Z,12.89
2023-06-04T04:34:23.956Z,12.92
2023-06-04T04:35:23.971Z,12.95
2023-06-04T04:36:25.094Z,13.04
2023-06-04T04:37:24.006Z,13.09
2023-06-04T04:38:23.632Z,13.09
2023-06-04T04:39:24.040Z,13.13
2023-06-04T04:40:23.618Z,13.16
2023-06-04T04:41:23.748Z,13.17
2023-06-04T04:42:24.128Z,13.16
2023-06-04T04:43:24.138Z,13.21
2023-06-04T04:44:24.160Z,13.22
2023-06-04T04:45:24.177Z,13.25
2023-06-04T04:46:23.897Z,13.24
2023-06-04T04:47:23.596Z,13.29
2023-06-04T04:48:23.533Z,13.36
2023-06-04T04:49:23.496Z,13.41
2023-06-04T04:50:23.564Z,13.46
2023-06-04T04:51:24.297Z,13.50
2023-06-04T04:53:40.066Z,13.62
2023-06-04T04:54:40.039Z,13.65
2023-06-04T04:55:41.743Z,13.66
2023-06-04T04:56:40.041Z,13.71
2023-06-04T04:57:40.131Z,13.73
2023-06-04T04:58:40.016Z,13.80
2023-06-04T04:59:40.005Z,13.86
2023-06-04T05:00:39.964Z,13.93
2023-06-04T05:01:39.984Z,13.98
2023-06-04T05:02:40.006Z,14.02
2023-06-04T05:03:40.069Z,14.08
2023-06-04T05:04:39.950Z,14.11
2023-06-04T05:05:39.906Z,14.13
2023-06-04T05:06:39.902Z,14.17
2023-06-04T05:07:47.036Z,14.21
2023-06-04T05:08:39.874Z,14.26
2023-06-04T05:09:39.856Z,14.30
2023-06-04T05:10:39.838Z,14.35
2023-06-04T05:11:39.822Z,14.38
2023-06-04T05:12:39.809Z,14.39
2023-06-04T05:13:39.806Z,14.39
2023-06-04T05:14:39.816Z,14.45
2023-06-04T05:15:39.800Z,14.52
2023-06-04T05:16:41.989Z,14.57
2023-06-04T05:17:39.800Z,14.60
2023-06-04T05:18:39.840Z,14.60
2023-06-04T05:19:39.873Z,14.60
2023-06-04T05:20:39.804Z,14.61
2023-06-04T05:21:39.801Z,14.63
2023-06-04T05:22:39.788Z,14.67
2023-06-04T05:23:39.696Z,14.74
2023-06-04T05:24:39.656Z,14.75
2023-06-04T05:25:39.652Z,14.79
2023-06-04T05:26:39.632Z,14.85
2023-06-04T05:27:39.632Z,14.82
2023-06-04T05:28:39.641Z,14.85
2023-06-04T05:29:39.605Z,14.93
2023-06-04T05:30:39.583Z,14.97
2023-06-04T05:31:39.608Z,15.00
2023-06-04T05:32:39.566Z,15.04
2023-06-04T05:33:39.551Z,15.11
2023-06-04T05:34:39.536Z,15.13
2023-06-04T05:35:39.520Z,15.13
2023-06-04T05:36:39.533Z,15.13
2023-06-04T05:37:39.503Z,15.16
2023-06-04T05:38:39.507Z,15.22
2023-06-04T05:39:39.469Z,15.31
2023-06-04T05:40:39.462Z,15.37
2023-06-04T05:41:39.451Z,15.41
2023-06-04T05:42:39.451Z,15.46
2023-06-04T05:43:39.429Z,15.48
2023-06-04T05:44:39.405Z,15.51
2023-06-04T05:45:39.429Z,15.56
2023-06-04T05:46:39.380Z,15.58
2023-06-04T05:47:39.390Z,15.58
2023-06-04T05:48:39.349Z,15.56
2023-06-04T05:49:39.347Z,15.55
2023-06-04T05:50:39.313Z,15.58
2023-06-04T05:51:39.327Z,15.62
2023-06-04T05:52:39.298Z,15.70
2023-06-04T05:53:39.570Z,15.71
2023-06-04T05:54:39.269Z,15.74
2023-06-04T05:55:40.722Z,15.71
2023-06-04T05:56:39.246Z,15.76
2023-06-04T05:57:39.249Z,15.80
2023-06-04T05:58:39.226Z,15.86
2023-06-04T05:59:39.212Z,15.86
2023-06-04T06:00:39.752Z,15.91
2023-06-04T06:01:39.190Z,15.92
2023-06-04T06:02:39.221Z,15.96
2023-06-04T06:03:39.243Z,15.92
2023-06-04T06:04:39.270Z,15.86
2023-06-04T06:05:39.153Z,15.89
2023-06-04T06:06:39.108Z,15.93
2023-06-04T06:07:39.145Z,15.96
2023-06-04T06:08:39.082Z,15.95
2023-06-04T06:09:39.079Z,16.01
2023-06-04T06:10:39.960Z,16.03
2023-06-04T06:11:39.055Z,16.07
2023-06-04T06:12:39.031Z,16.10
2023-06-04T06:13:39.030Z,16.16
2023-06-04T06:14:39.005Z,16.22
2023-06-04T06:15:39.042Z,16.25
2023-06-04T06:16:39.006Z,16.32
2023-06-04T06:17:39.030Z,16.36
2023-06-04T06:18:38.965Z,16.40
2023-06-04T06:19:38.963Z,16.42
2023-06-04T06:20:38.976Z,16.42
2023-06-04T06:21:38.949Z,16.45
2023-06-04T06:22:38.924Z,16.52
2023-06-04T06:23:38.996Z,16.55
2023-06-04T06:24:38.892Z,16.59
2023-06-04T06:25:38.872Z,16.65
2023-06-04T06:26:38.875Z,16.63
2023-06-04T06:27:38.874Z,16.67
2023-06-04T06:28:38.836Z,16.67
2023-06-04T06:29:38.838Z,16.70
2023-06-04T06:30:38.834Z,16.73
2023-06-04T06:31:38.892Z,16.77
2023-06-04T06:32:38.845Z,16.82
2023-06-04T06:33:38.796Z,16.87
2023-06-04T06:34:38.757Z,16.95
2023-06-04T06:35:38.797Z,16.95
2023-06-04T06:36:38.721Z,16.98
2023-06-04T06:37:38.721Z,17.02
2023-06-04T06:38:38.709Z,17.07
2023-06-04T06:39:38.718Z,17.10
2023-06-04T06:40:38.725Z,17.06
2023-06-04T06:41:38.744Z,17.02
2023-06-04T06:42:38.718Z,17.02
2023-06-04T06:43:38.643Z,17.03
2023-06-04T06:44:38.651Z,17.07
2023-06-04T06:45:38.631Z,17.10
2023-06-04T06:46:38.634Z,17.15
2023-06-04T06:47:38.615Z,17.22
2023-06-04T06:48:38.594Z,17.27
2023-06-04T06:49:38.568Z,17.25
2023-06-04T06:50:38.571Z,17.25
2023-06-04T06:51:38.545Z,17.30
2023-06-04T06:52:38.529Z,17.35
2023-06-04T06:53:38.517Z,17.38
2023-06-04T06:54:38.536Z,17.38
2023-06-04T06:55:38.518Z,17.42
2023-06-04T06:56:38.515Z,17.45
2023-06-04T06:57:38.497Z,17.47
2023-06-04T06:58:38.473Z,17.57
2023-06-04T06:59:38.466Z,17.60
2023-06-04T07:00:38.532Z,17.65
2023-06-04T07:01:38.488Z,17.68
2023-06-04T07:02:38.490Z,17.74
2023-06-04T07:03:38.448Z,17.77
2023-06-04T07:04:38.388Z,17.77
2023-06-04T07:05:38.365Z,17.80
2023-06-04T07:06:38.425Z,17.84
2023-06-04T07:07:38.358Z,17.84
2023-06-04T07:08:38.347Z,17.84
2023-06-04T07:09:38.349Z,17.89
2023-06-04T07:10:38.322Z,17.95
2023-06-04T07:11:38.630Z,17.98
2023-06-04T07:12:40.366Z,17.99
2023-06-04T07:13:38.256Z,18.01
2023-06-04T07:14:39.020Z,18.09
2023-06-04T07:15:38.343Z,18.10
2023-06-04T07:16:39.392Z,18.10
2023-06-04T07:17:38.342Z,18.17
2023-06-04T07:18:40.197Z,18.19
2023-06-04T07:19:39.181Z,18.23
2023-06-04T07:20:39.087Z,18.28
2023-06-04T07:21:38.386Z,18.32
2023-06-04T07:22:38.375Z,18.36
2023-06-04T07:23:38.737Z,18.36
2023-06-04T07:24:38.151Z,18.36
2023-06-04T07:25:38.129Z,18.35
2023-06-04T07:26:39.029Z,18.28
2023-06-04T07:27:38.118Z,18.31
2023-06-04T07:28:38.108Z,18.35
2023-06-04T07:29:38.262Z,18.35
2023-06-04T07:30:40.034Z,18.38
2023-06-04T07:31:38.137Z,18.42
2023-06-04T07:32:38.056Z,18.46
2023-06-04T07:33:38.113Z,18.49
2023-06-04T07:34:38.073Z,18.53
2023-06-04T07:35:38.001Z,18.56
2023-06-04T07:36:38.167Z,18.47
2023-06-04T07:37:38.174Z,18.38
2023-06-04T07:38:37.964Z,18.32
2023-06-04T07:39:38.000Z,18.35
2023-06-04T07:40:38.310Z,18.39
2023-06-04T07:41:37.959Z,18.44
2023-06-04T07:42:37.968Z,18.47
2023-06-04T07:43:37.904Z,18.51
2023-06-04T07:44:37.921Z,18.51
2023-06-04T07:45:37.935Z,18.50
2023-06-04T07:46:37.998Z,18.53
2023-06-04T07:47:38.010Z,18.49
2023-06-04T07:48:38.037Z,18.42
2023-06-04T07:49:44.634Z,18.41
2023-06-04T07:50:41.140Z,18.42
2023-06-04T07:51:37.859Z,18.50
2023-06-04T07:52:38.039Z,18.57
2023-06-04T07:53:37.993Z,18.68
2023-06-04T07:54:37.788Z,18.75
2023-06-04T07:55:38.154Z,18.74
2023-06-04T07:56:37.774Z,18.75
2023-06-04T07:57:38.191Z,18.75
2023-06-04T07:58:37.744Z,18.78
2023-06-04T07:59:37.695Z,18.84
2023-06-04T08:00:37.656Z,18.84
2023-06-04T08:01:37.655Z,18.75
2023-06-04T08:02:37.786Z,18.76
2023-06-04T08:03:38.159Z,18.76
2023-06-04T08:04:37.674Z,18.78
2023-06-04T08:05:37.601Z,18.86
2023-06-04T08:06:37.584Z,18.91
2023-06-04T08:07:37.608Z,18.96
2023-06-04T08:08:37.557Z,19.05
2023-06-04T08:09:37.543Z,19.17
2023-06-04T08:10:37.552Z,19.23
2023-06-04T08:11:37.526Z,19.25
2023-06-04T08:12:37.500Z,19.30
2023-06-04T08:13:37.474Z,19.35
2023-06-04T08:14:37.477Z,19.34
2023-06-04T08:15:38.018Z,19.35
2023-06-04T08:16:37.488Z,19.40
2023-06-04T08:17:37.475Z,19.45
2023-06-04T08:18:37.432Z,19.42
2023-06-04T08:19:37.393Z,19.32
2023-06-04T08:20:37.404Z,19.32
2023-06-04T08:21:37.380Z,19.31
2023-06-04T08:22:37.376Z,19.35
2023-06-04T08:23:37.350Z,19.43
2023-06-04T08:24:37.355Z,19.45
2023-06-04T08:25:37.326Z,19.49
2023-06-04T08:26:37.324Z,19.55
2023-06-04T08:27:37.294Z,19.60
2023-06-04T08:28:37.296Z,19.68
2023-06-04T08:29:37.262Z,19.71
2023-06-04T08:30:37.324Z,19.68
2023-06-04T08:31:37.337Z,19.60
2023-06-04T08:32:37.307Z,19.52
2023-06-04T08:33:37.275Z,19.49
2023-06-04T08:34:37.290Z,19.46
2023-06-04T08:35:37.476Z,19.45
2023-06-04T08:36:37.258Z,19.46
2023-06-04T08:37:37.193Z,19.42
2023-06-04T08:38:37.204Z,19.43
2023-06-04T08:39:37.162Z,19.47
2023-06-04T08:40:37.199Z,19.50
2023-06-04T08:41:37.201Z,19.46
2023-06-04T08:42:37.140Z,19.42
2023-06-04T08:43:37.163Z,19.47
2023-06-04T08:44:37.146Z,19.57
2023-06-04T08:45:37.249Z,19.65
2023-06-04T08:46:37.206Z,19.71
2023-06-04T08:47:37.220Z,19.75
2023-06-04T08:48:37.218Z,19.83
2023-06-04T08:49:37.013Z,19.80
2023-06-04T08:50:37.098Z,19.79
2023-06-04T08:51:36.981Z,19.87
2023-06-04T08:52:36.977Z,19.94
2023-06-04T08:53:37.019Z,19.98
2023-06-04T08:54:36.955Z,19.98
2023-06-04T08:55:36.940Z,19.97
2023-06-04T08:56:37.012Z,20.01
2023-06-04T08:57:36.912Z,20.05
2023-06-04T08:58:36.914Z,20.12
2023-06-04T08:59:36.889Z,20.20
2023-06-04T09:00:36.890Z,20.16
2023-06-04T09:01:36.889Z,20.12
2023-06-04T09:02:36.878Z,20.13
2023-06-04T09:03:36.901Z,20.05
2023-06-04T09:04:36.836Z,19.98
2023-06-04T09:05:36.810Z,19.98
2023-06-04T09:06:36.799Z,20.08
2023-06-04T09:07:36.795Z,20.16
2023-06-04T09:08:36.787Z,20.26
2023-06-04T09:09:36.868Z,20.27
2023-06-04T09:10:36.782Z,20.22
2023-06-04T09:11:36.740Z,20.16
2023-06-04T09:12:36.728Z,20.15
2023-06-04T09:13:36.722Z,20.17
2023-06-04T09:14:36.705Z,20.23
2023-06-04T09:15:36.716Z,20.20
2023-06-04T09:16:36.766Z,20.23
2023-06-04T09:17:36.727Z,20.23
2023-06-04T09:18:36.697Z,20.17
2023-06-04T09:19:36.657Z,20.10
2023-06-04T09:20:36.794Z,20.04
2023-06-04T09:21:36.608Z,20.01
2023-06-04T09:22:36.619Z,19.94
2023-06-04T09:23:36.642Z,19.89
2023-06-04T09:24:36.573Z,20.00
2023-06-04T09:25:36.565Z,20.07
2023-06-04T09:26:36.552Z,20.08
2023-06-04T09:27:36.575Z,20.17
2023-06-04T09:28:36.667Z,20.26
2023-06-04T09:29:36.523Z,20.23
2023-06-04T09:30:36.514Z,20.22
2023-06-04T09:31:36.533Z,20.22
2023-06-04T09:32:36.512Z,20.27
2023-06-04T09:33:36.501Z,20.37
2023-06-04T09:34:36.494Z,20.48
2023-06-04T09:35:36.458Z,20.58
2023-06-04T09:36:36.435Z,20.71
2023-06-04T09:37:36.565Z,20.81
2023-06-04T09:38:36.403Z,20.90
2023-06-04T09:39:36.599Z,20.97
2023-06-04T09:40:36.382Z,21.01
2023-06-04T09:41:36.549Z,21.05
2023-06-04T09:42:36.356Z,21.01
2023-06-04T09:43:36.327Z,20.96
2023-06-04T09:44:36.335Z,20.90
2023-06-04T09:45:36.390Z,20.87
2023-06-04T09:46:36.363Z,20.87
2023-06-04T09:47:36.399Z,20.85
2023-06-04T09:48:36.270Z,20.79
2023-06-04T09:49:36.249Z,20.79
2023-06-04T09:50:36.252Z,20.88
2023-06-04T09:51:37.205Z,20.94
2023-06-04T09:52:36.227Z,20.98
2023-06-04T09:53:36.190Z,21.05
2023-06-04T09:54:36.255Z,21.01
2023-06-04T09:55:36.179Z,20.96
2023-06-04T09:56:36.174Z,20.96
2023-06-04T09:57:36.149Z,20.91
2023-06-04T09:58:36.130Z,20.90
2023-06-04T09:59:36.119Z,20.93
2023-06-04T10:00:36.132Z,21.01
2023-06-04T10:01:36.141Z,21.11
2023-06-04T10:02:36.161Z,21.21
2023-06-04T10:03:36.339Z,21.31
2023-06-04T10:04:36.092Z,21.38
2023-06-04T10:05:36.057Z,21.36
2023-06-04T10:06:36.051Z,21.30
2023-06-04T10:07:36.019Z,21.30
2023-06-04T10:08:36.021Z,21.34
2023-06-04T10:09:36.005Z,21.34
2023-06-04T10:10:36.028Z,21.21
2023-06-04T10:11:35.974Z,21.24
2023-06-04T10:12:35.959Z,21.34
2023-06-04T10:13:35.960Z,21.42
2023-06-04T10:14:35.980Z,21.43
2023-06-04T10:15:35.919Z,21.51
2023-06-04T10:16:35.949Z,21.56
2023-06-04T10:17:36.062Z,21.63
2023-06-04T10:18:35.881Z,21.55
2023-06-04T10:19:35.963Z,21.48
2023-06-04T10:20:35.870Z,21.49
2023-06-04T10:21:36.097Z,21.56
2023-06-04T10:22:35.855Z,21.66
2023-06-04T10:23:35.933Z,21.70
2023-06-04T10:24:35.808Z,21.68
2023-06-04T10:25:35.782Z,21.64
2023-06-04T10:26:35.810Z,21.64
2023-06-04T10:27:35.769Z,21.66
2023-06-04T10:28:35.761Z,21.67
2023-06-04T10:29:35.737Z,21.73
2023-06-04T10:30:35.746Z,21.82
2023-06-04T10:31:35.743Z,21.74
2023-06-04T10:32:35.846Z,21.74
2023-06-04T10:33:35.680Z,21.75
2023-06-04T10:34:35.683Z,21.77
2023-06-04T10:35:35.678Z,21.66
2023-06-04T10:36:36.645Z,21.43
2023-06-04T10:37:35.683Z,21.30
2023-06-04T10:38:35.942Z,21.34
2023-06-04T10:39:35.607Z,21.49
2023-06-04T10:40:35.649Z,21.58
2023-06-04T10:41:35.612Z,21.68
2023-06-04T10:42:35.590Z,21.81
2023-06-04T10:43:35.565Z,21.79
2023-06-04T10:44:35.555Z,21.83
2023-06-04T10:45:35.562Z,21.91
2023-06-04T10:46:35.662Z,21.94
2023-06-04T10:47:35.575Z,21.98
2023-06-04T10:48:35.510Z,22.01
2023-06-04T10:49:35.478Z,22.02
2023-06-04T10:50:35.492Z,21.96
2023-06-04T10:51:35.550Z,21.85
2023-06-04T10:52:35.492Z,21.89
2023-06-04T10:53:35.441Z,21.91
2023-06-04T10:54:35.431Z,21.89
2023-06-04T10:55:35.429Z,21.94
2023-06-04T10:56:35.402Z,21.94
2023-06-04T10:57:35.384Z,22.01
2023-06-04T10:58:35.370Z,22.11
2023-06-04T10:59:35.369Z,22.23
2023-06-04T11:00:35.352Z,22.29
2023-06-04T11:01:35.375Z,22.29
2023-06-04T11:02:35.363Z,22.29
2023-06-04T11:03:35.360Z,22.38
2023-06-04T11:04:35.304Z,22.36
2023-06-04T11:05:35.297Z,22.29
2023-06-04T11:06:35.284Z,22.31
2023-06-04T11:07:42.681Z,22.21
2023-06-04T11:08:35.265Z,22.15
2023-06-04T11:09:38.001Z,22.14
2023-06-04T11:10:36.881Z,22.12
2023-06-04T11:11:35.225Z,22.19
2023-06-04T11:12:35.269Z,22.23
2023-06-04T11:13:35.187Z,22.15
2023-06-04T11:14:35.303Z,22.17
2023-06-04T11:15:35.231Z,22.12
2023-06-04T11:16:35.157Z,22.09
2023-06-04T11:17:35.204Z,22.09
2023-06-04T11:18:35.134Z,22.08
2023-06-04T11:19:35.145Z,22.08
2023-06-04T11:20:35.105Z,22.04
2023-06-04T11:21:35.073Z,21.86
2023-06-04T11:22:35.070Z,21.86
2023-06-04T11:23:35.128Z,21.85
2023-06-04T11:24:35.055Z,21.93
2023-06-04T11:25:35.062Z,22.11
2023-06-04T11:26:36.013Z,22.17
2023-06-04T11:27:36.668Z,22.09
2023-06-04T11:28:34.997Z,22.06
2023-06-04T11:29:35.022Z,22.06
2023-06-04T11:30:35.198Z,22.06
2023-06-04T11:31:35.012Z,22.12
2023-06-04T11:32:35.142Z,22.15
2023-06-04T11:33:34.959Z,22.17
2023-06-04T11:34:34.928Z,22.12
2023-06-04T11:35:35.582Z,22.17
2023-06-04T11:36:34.884Z,22.19
2023-06-04T11:37:34.889Z,22.17
2023-06-04T11:38:34.881Z,22.19
2023-06-04T11:39:34.866Z,22.23
2023-06-04T11:40:34.844Z,22.15
2023-06-04T11:41:34.881Z,21.86
2023-06-04T11:42:34.806Z,21.68
2023-06-04T11:43:34.793Z,21.73
2023-06-04T11:44:34.777Z,21.86
2023-06-04T11:45:34.777Z,22.04
2023-06-04T11:46:34.812Z,22.19
2023-06-04T11:47:34.795Z,22.30
2023-06-04T11:48:34.783Z,22.41
2023-06-04T11:49:34.766Z,22.54
2023-06-04T11:50:34.936Z,22.72
2023-06-04T11:51:34.723Z,22.79
2023-06-04T11:52:34.671Z,22.85
2023-06-04T11:53:34.671Z,22.88
2023-06-04T11:54:34.703Z,22.79
2023-06-04T11:55:34.657Z,22.72
2023-06-04T11:56:34.618Z,22.66
2023-06-04T11:57:34.630Z,22.59
2023-06-04T11:58:34.596Z,22.61
2023-06-04T11:59:34.590Z,22.60
2023-06-04T12:00:34.841Z,22.60
2023-06-04T12:01:34.554Z,22.63
2023-06-04T12:02:34.631Z,22.60
2023-06-04T12:03:34.590Z,22.54
2023-06-04T12:04:34.517Z,22.39
2023-06-04T12:05:34.570Z,22.27
2023-06-04T12:06:34.492Z,22.26
2023-06-04T12:07:34.584Z,22.27
2023-06-04T12:08:34.470Z,22.29
2023-06-04T12:09:34.488Z,22.26
2023-06-04T12:10:34.458Z,22.31
2023-06-04T12:11:34.446Z,22.33
2023-06-04T12:12:34.423Z,22.29
2023-06-04T12:13:34.466Z,22.27
2023-06-04T12:14:34.454Z,22.26
2023-06-04T12:15:34.430Z,22.27
2023-06-04T12:16:34.390Z,22.26
2023-06-04T12:17:34.488Z,22.30
2023-06-04T12:18:34.374Z,22.39
2023-06-04T12:19:34.337Z,22.26
2023-06-04T12:20:34.368Z,22.19
2023-06-04T12:21:34.330Z,22.11
2023-06-04T12:22:34.294Z,22.08
2023-06-04T12:23:34.321Z,22.09
2023-06-04T12:24:34.320Z,22.11
2023-06-04T12:25:34.292Z,22.04
2023-06-04T12:26:34.255Z,22.06
2023-06-04T12:27:34.225Z,22.12
2023-06-04T12:28:34.249Z,22.20
2023-06-04T12:29:34.262Z,22.23
2023-06-04T12:30:34.491Z,22.31
2023-06-04T12:31:34.293Z,22.42
2023-06-04T12:32:34.220Z,22.54
2023-06-04T12:33:34.263Z,22.61
2023-06-04T12:34:34.147Z,22.70
2023-06-04T12:35:34.180Z,22.76
2023-06-04T12:36:34.124Z,22.79
2023-06-04T12:37:34.210Z,22.72
2023-06-04T12:38:34.088Z,22.69
2023-06-04T12:39:34.096Z,22.75
2023-06-04T12:40:34.111Z,22.81
2023-06-04T12:41:34.065Z,22.89
2023-06-04T12:42:34.258Z,22.94
2023-06-04T12:43:34.031Z,22.89
2023-06-04T12:44:35.746Z,22.88
2023-06-04T12:45:34.040Z,22.86
2023-06-04T12:46:34.099Z,22.79
2023-06-04T12:47:34.031Z,22.78
2023-06-04T12:48:33.979Z,22.72
2023-06-04T12:49:33.944Z,22.72
2023-06-04T12:50:33.924Z,22.67
2023-06-04T12:51:33.960Z,22.75
2023-06-04T12:52:33.900Z,22.72
2023-06-04T12:53:33.906Z,22.66